Anastasia Island, Florida
Current Conditions -  °F | °C
As of 11:58 AM on Saturday 25 Oct 2014 (Local Time) from KSGJ Reporting Station
Clear Clear  
Wind Chill: 73°   Ceiling: Unl
Heat Index: 73°   Visibility: 10mi
Dew Point: 57°   Wind: 10mph
Humidity: 57%   Direction: 350°N
Pressure: 30.02"   Gusts: NA
Location:  29.8475°N, 81.2787°W
Report Text: KSGJ 251558Z 35009KT 10SM CLR 23/14 A3002 RMK AO2 SLP166 T02280139
Loading
Personal Weather Stations






























Interactive Weather Map New forecast layout! Learn more

10-Day Weather Forecast

Advertisements
Track Severe Weather on mobile